sensor_id;sensor_type;location;lat;lon;timestamp;temperature;humidity
11091;DHT22;5599;52.210;21.046;2023-08-21T00:01:03;25.70;91.70
11091;DHT22;5599;52.210;21.046;2023-08-21T00:03:32;25.70;99.90
11091;DHT22;5599;52.210;21.046;2023-08-21T00:06:02;25.70;90.50
11091;DHT22;5599;52.210;21.046;2023-08-21T00:08:32;25.70;47.30
11091;DHT22;5599;52.210;21.046;2023-08-21T00:11:01;25.70;99.90
11091;DHT22;5599;52.210;21.046;2023-08-21T00:13:30;25.70;99.90
11091;DHT22;5599;52.210;21.046;2023-08-21T00:15:59;25.60;99.90
11091;DHT22;5599;52.210;21.046;2023-08-21T00:18:28;25.60;99.90
11091;DHT22;5599;52.210;21.046;2023-08-21T00:20:57;25.50;99.90
11091;DHT22;5599;52.210;21.046;2023-08-21T00:23:26;25.50;99.90
11091;DHT22;5599;52.210;21.046;2023-08-21T00:25:57;25.50;99.90
11091;DHT22;5599;52.210;21.046;2023-08-21T00:28:26;25.40;1.00
11091;DHT22;5599;52.210;21.046;2023-08-21T00:31:02;25.40;1.00
11091;DHT22;5599;52.210;21.046;2023-08-21T00:33:32;25.30;1.00
11091;DHT22;5599;52.210;21.046;2023-08-21T00:36:01;25.30;1.00
11091;DHT22;5599;52.210;21.046;2023-08-21T00:38:30;25.30;1.00
11091;DHT22;5599;52.210;21.046;2023-08-21T00:41:01;25.30;1.00
11091;DHT22;5599;52.210;21.046;2023-08-21T00:43:32;25.20;1.00
11091;DHT22;5599;52.210;21.046;2023-08-21T00:46:01;25.10;1.00
11091;DHT22;5599;52.210;21.046;2023-08-21T00:48:31;25.20;1.00
11091;DHT22;5599;52.210;21.046;2023-08-21T00:51:01;25.10;1.00
11091;DHT22;5599;52.210;21.046;2023-08-21T00:53:30;25.00;1.00
11091;DHT22;5599;52.210;21.046;2023-08-21T00:56:01;25.00;1.00
11091;DHT22;5599;52.210;21.046;2023-08-21T00:58:30;25.00;17.10
11091;DHT22;5599;52.210;21.046;2023-08-21T01:00:59;25.00;1.00
11091;DHT22;5599;52.210;21.046;2023-08-21T01:03:29;24.90;1.00
11091;DHT22;5599;52.210;21.046;2023-08-21T01:05:58;24.90;1.00
11091;DHT22;5599;52.210;21.046;2023-08-21T01:08:34;24.80;1.00
11091;DHT22;5599;52.210;21.046;2023-08-21T01:11:17;24.80;86.40
11091;DHT22;5599;52.210;21.046;2023-08-21T01:13:54;24.80;13.10
11091;DHT22;5599;52.210;21.046;2023-08-21T01:16:24;24.80;99.90
11091;DHT22;5599;52.210;21.046;2023-08-21T01:18:55;24.80;99.90
11091;DHT22;5599;52.210;21.046;2023-08-21T01:21:25;24.80;99.90
11091;DHT22;5599;52.210;21.046;2023-08-21T01:23:56;24.70;99.90
11091;DHT22;5599;52.210;21.046;2023-08-21T01:26:25;24.60;99.90
11091;DHT22;5599;52.210;21.046;2023-08-21T01:28:54;24.60;99.90
11091;DHT22;5599;52.210;21.046;2023-08-21T01:31:26;24.60;99.90
11091;DHT22;5599;52.210;21.046;2023-08-21T01:33:59;24.50;1.00
11091;DHT22;5599;52.210;21.046;2023-08-21T01:36:32;24.60;1.00
11091;DHT22;5599;52.210;21.046;2023-08-21T01:39:03;24.50;1.00
11091;DHT22;5599;52.210;21.046;2023-08-21T01:41:32;24.40;1.00
11091;DHT22;5599;52.210;21.046;2023-08-21T01:44:01;24.40;1.00
11091;DHT22;5599;52.210;21.046;2023-08-21T01:46:30;24.40;79.40
11091;DHT22;5599;52.210;21.046;2023-08-21T01:48:59;24.40;99.90
11091;DHT22;5599;52.210;21.046;2023-08-21T01:51:28;24.30;99.90
11091;DHT22;5599;52.210;21.046;2023-08-21T01:53:57;24.30;99.90
11091;DHT22;5599;52.210;21.046;2023-08-21T01:56:28;24.20;1.00
11091;DHT22;5599;52.210;21.046;2023-08-21T01:58:57;24.20;1.00
11091;DHT22;5599;52.210;21.046;2023-08-21T02:01:26;24.20;1.00
11091;DHT22;5599;52.210;21.046;2023-08-21T02:03:55;24.20;99.90
11091;DHT22;5599;52.210;21.046;2023-08-21T02:06:24;24.20;99.90
11091;DHT22;5599;52.210;21.046;2023-08-21T02:08:53;24.20;99.90
11091;DHT22;5599;52.210;21.046;2023-08-21T02:11:22;24.20;99.90
11091;DHT22;5599;52.210;21.046;2023-08-21T02:13:54;24.10;99.90
11091;DHT22;5599;52.210;21.046;2023-08-21T02:16:23;24.10;1.00
11091;DHT22;5599;52.210;21.046;2023-08-21T02:18:52;24.10;1.00
11091;DHT22;5599;52.210;21.046;2023-08-21T02:21:21;24.10;1.00
11091;DHT22;5599;52.210;21.046;2023-08-21T02:23:50;24.10;1.00
11091;DHT22;5599;52.210;21.046;2023-08-21T02:26:20;24.10;1.00
11091;DHT22;5599;52.210;21.046;2023-08-21T02:28:50;24.10;1.00
11091;DHT22;5599;52.210;21.046;2023-08-21T02:31:20;24.00;99.90
11091;DHT22;5599;52.210;21.046;2023-08-21T02:33:50;23.90;1.00
11091;DHT22;5599;52.210;21.046;2023-08-21T02:36:19;24.00;1.00
11091;DHT22;5599;52.210;21.046;2023-08-21T02:38:49;23.90;99.90
11091;DHT22;5599;52.210;21.046;2023-08-21T02:41:18;23.90;1.00
11091;DHT22;5599;52.210;21.046;2023-08-21T02:43:47;24.00;1.00
11091;DHT22;5599;52.210;21.046;2023-08-21T02:46:16;24.00;1.00
11091;DHT22;5599;52.210;21.046;2023-08-21T02:48:47;23.90;1.00
11091;DHT22;5599;52.210;21.046;2023-08-21T02:51:17;23.90;99.90
11091;DHT22;5599;52.210;21.046;2023-08-21T02:53:46;23.90;99.90
11091;DHT22;5599;52.210;21.046;2023-08-21T02:56:15;23.80;1.00
11091;DHT22;5599;52.210;21.046;2023-08-21T02:58:44;23.80;1.00
11091;DHT22;5599;52.210;21.046;2023-08-21T03:01:13;23.80;99.90
11091;DHT22;5599;52.210;21.046;2023-08-21T03:03:42;23.70;99.90
11091;DHT22;5599;52.210;21.046;2023-08-21T03:06:13;23.70;99.90
11091;DHT22;5599;52.210;21.046;2023-08-21T03:08:44;23.60;99.90
11091;DHT22;5599;52.210;21.046;2023-08-21T03:11:13;23.60;99.90
11091;DHT22;5599;52.210;21.046;2023-08-21T03:13:42;23.60;99.90
11091;DHT22;5599;52.210;21.046;2023-08-21T03:16:11;23.60;99.90
11091;DHT22;5599;52.210;21.046;2023-08-21T03:18:55;23.60;99.90
11091;DHT22;5599;52.210;21.046;2023-08-21T03:21:27;23.60;99.90
11091;DHT22;5599;52.210;21.046;2023-08-21T03:23:59;23.50;99.90
11091;DHT22;5599;52.210;21.046;2023-08-21T03:26:31;23.60;99.90
11091;DHT22;5599;52.210;21.046;2023-08-21T03:29:01;23.60;99.90
11091;DHT22;5599;52.210;21.046;2023-08-21T03:31:31;23.50;99.90
11091;DHT22;5599;52.210;21.046;2023-08-21T03:34:00;23.50;99.90
11091;DHT22;5599;52.210;21.046;2023-08-21T03:36:31;23.60;99.90
11091;DHT22;5599;52.210;21.046;2023-08-21T03:39:03;23.60;93.00
11091;DHT22;5599;52.210;21.046;2023-08-21T03:41:37;23.60;99.90
11091;DHT22;5599;52.210;21.046;2023-08-21T03:44:06;23.60;99.90
11091;DHT22;5599;52.210;21.046;2023-08-21T03:46:35;23.50;99.90
11091;DHT22;5599;52.210;21.046;2023-08-21T03:49:04;23.60;99.90
11091;DHT22;5599;52.210;21.046;2023-08-21T03:51:35;23.50;99.90
11091;DHT22;5599;52.210;21.046;2023-08-21T03:54:05;23.60;99.90
11091;DHT22;5599;52.210;21.046;2023-08-21T03:56:36;23.60;99.90
11091;DHT22;5599;52.210;21.046;2023-08-21T03:59:05;23.70;99.90
11091;DHT22;5599;52.210;21.046;2023-08-21T04:01:34;23.80;99.90
11091;DHT22;5599;52.210;21.046;2023-08-21T04:04:03;23.80;1.00
11091;DHT22;5599;52.210;21.046;2023-08-21T04:06:32;23.90;1.00
11091;DHT22;5599;52.210;21.046;2023-08-21T04:09:03;23.90;99.90
11091;DHT22;5599;52.210;21.046;2023-08-21T04:11:34;24.00;99.90
11091;DHT22;5599;52.210;21.046;2023-08-21T04:14:03;24.00;1.00
11091;DHT22;5599;52.210;21.046;2023-08-21T04:16:32;24.10;1.00
11091;DHT22;5599;52.210;21.046;2023-08-21T04:19:01;24.20;1.00
11091;DHT22;5599;52.210;21.046;2023-08-21T04:21:31;24.30;1.00
11091;DHT22;5599;52.210;21.046;2023-08-21T04:24:00;24.40;99.90
11091;DHT22;5599;52.210;21.046;2023-08-21T04:26:31;24.50;99.90
11091;DHT22;5599;52.210;21.046;2023-08-21T04:29:00;24.70;1.00
11091;DHT22;5599;52.210;21.046;2023-08-21T04:31:30;24.80;1.00
11091;DHT22;5599;52.210;21.046;2023-08-21T04:33:59;25.00;41.50
11091;DHT22;5599;52.210;21.046;2023-08-21T04:36:29;25.40;1.00
11091;DHT22;5599;52.210;21.046;2023-08-21T04:39:00;26.20;99.90
11091;DHT22;5599;52.210;21.046;2023-08-21T04:41:30;26.50;99.90
11091;DHT22;5599;52.210;21.046;2023-08-21T04:44:00;26.30;99.90
11091;DHT22;5599;52.210;21.046;2023-08-21T04:46:31;26.20;1.00
11091;DHT22;5599;52.210;21.046;2023-08-21T04:49:00;26.80;1.00
11091;DHT22;5599;52.210;21.046;2023-08-21T04:51:29;28.10;1.00
11091;DHT22;5599;52.210;21.046;2023-08-21T04:54:01;29.50;99.90
11091;DHT22;5599;52.210;21.046;2023-08-21T04:56:32;30.50;99.90
11091;DHT22;5599;52.210;21.046;2023-08-21T04:59:02;31.70;1.00
11091;DHT22;5599;52.210;21.046;2023-08-21T05:01:31;32.40;99.90
11091;DHT22;5599;52.210;21.046;2023-08-21T05:04:01;32.10;99.90
11091;DHT22;5599;52.210;21.046;2023-08-21T05:06:31;31.70;99.90
11091;DHT22;5599;52.210;21.046;2023-08-21T05:09:00;31.10;99.90
11091;DHT22;5599;52.210;21.046;2023-08-21T05:11:29;30.40;99.90
11091;DHT22;5599;52.210;21.046;2023-08-21T05:14:00;29.80;99.90
11091;DHT22;5599;52.210;21.046;2023-08-21T05:16:29;29.30;99.90
11091;DHT22;5599;52.210;21.046;2023-08-21T05:18:59;28.70;1.00
11091;DHT22;5599;52.210;21.046;2023-08-21T05:21:29;28.30;99.90
11091;DHT22;5599;52.210;21.046;2023-08-21T05:23:58;28.00;1.00
11091;DHT22;5599;52.210;21.046;2023-08-21T05:26:28;27.80;99.90
11091;DHT22;5599;52.210;21.046;2023-08-21T05:28:57;27.70;1.00
11091;DHT22;5599;52.210;21.046;2023-08-21T05:31:28;27.50;1.00
11091;DHT22;5599;52.210;21.046;2023-08-21T05:33:58;27.40;99.90
11091;DHT22;5599;52.210;21.046;2023-08-21T05:36:28;27.50;99.90
11091;DHT22;5599;52.210;21.046;2023-08-21T05:38:58;28.10;40.30
11091;DHT22;5599;52.210;21.046;2023-08-21T05:41:31;29.00;1.00
11091;DHT22;5599;52.210;21.046;2023-08-21T05:44:01;29.40;99.90
11091;DHT22;5599;52.210;21.046;2023-08-21T05:46:32;29.40;1.00
11091;DHT22;5599;52.210;21.046;2023-08-21T05:49:01;29.40;1.00
11091;DHT22;5599;52.210;21.046;2023-08-21T05:51:31;29.60;99.90
11091;DHT22;5599;52.210;21.046;2023-08-21T05:54:00;29.90;99.90
11091;DHT22;5599;52.210;21.046;2023-08-21T05:56:29;30.20;99.90
11091;DHT22;5599;52.210;21.046;2023-08-21T05:58:59;30.30;99.90
11091;DHT22;5599;52.210;21.046;2023-08-21T06:01:28;29.80;99.90
11091;DHT22;5599;52.210;21.046;2023-08-21T06:03:59;29.30;99.90
11091;DHT22;5599;52.210;21.046;2023-08-21T06:06:55;28.90;99.90
11091;DHT22;5599;52.210;21.046;2023-08-21T06:09:24;28.70;99.90
11091;DHT22;5599;52.210;21.046;2023-08-21T06:11:53;28.50;99.90
11091;DHT22;5599;52.210;21.046;2023-08-21T06:14:23;28.40;99.90
11091;DHT22;5599;52.210;21.046;2023-08-21T06:17:01;28.40;99.90
11091;DHT22;5599;52.210;21.046;2023-08-21T06:19:32;28.20;1.00
11091;DHT22;5599;52.210;21.046;2023-08-21T06:22:01;28.70;1.00
11091;DHT22;5599;52.210;21.046;2023-08-21T06:24:30;29.10;99.90
11091;DHT22;5599;52.210;21.046;2023-08-21T06:27:02;29.00;99.90
11091;DHT22;5599;52.210;21.046;2023-08-21T06:29:35;28.70;1.00
11091;DHT22;5599;52.210;21.046;2023-08-21T06:32:05;28.50;99.90
11091;DHT22;5599;52.210;21.046;2023-08-21T06:34:36;28.30;99.90
11091;DHT22;5599;52.210;21.046;2023-08-21T06:37:05;28.00;1.00
11091;DHT22;5599;52.210;21.046;2023-08-21T06:39:35;27.80;1.00
11091;DHT22;5599;52.210;21.046;2023-08-21T06:42:04;27.60;1.00
11091;DHT22;5599;52.210;21.046;2023-08-21T06:44:41;27.40;1.00
11091;DHT22;5599;52.210;21.046;2023-08-21T06:47:10;27.30;99.90
11091;DHT22;5599;52.210;21.046;2023-08-21T06:49:41;27.40;99.90
11091;DHT22;5599;52.210;21.046;2023-08-21T06:52:10;28.00;99.90
11091;DHT22;5599;52.210;21.046;2023-08-21T06:54:39;28.60;1.00
11091;DHT22;5599;52.210;21.046;2023-08-21T06:57:08;28.90;1.00
11091;DHT22;5599;52.210;21.046;2023-08-21T06:59:37;29.00;99.90
11091;DHT22;5599;52.210;21.046;2023-08-21T07:02:08;29.10;99.90
11091;DHT22;5599;52.210;21.046;2023-08-21T07:04:39;28.80;1.00
11091;DHT22;5599;52.210;21.046;2023-08-21T07:07:09;28.60;99.90
11091;DHT22;5599;52.210;21.046;2023-08-21T07:09:39;28.20;99.90
11091;DHT22;5599;52.210;21.046;2023-08-21T07:12:08;27.80;1.00
11091;DHT22;5599;52.210;21.046;2023-08-21T07:14:38;27.50;1.00
11091;DHT22;5599;52.210;21.046;2023-08-21T07:17:08;27.00;99.90
11091;DHT22;5599;52.210;21.046;2023-08-21T07:19:40;26.80;1.00
11091;DHT22;5599;52.210;21.046;2023-08-21T07:22:13;26.70;80.40
11091;DHT22;5599;52.210;21.046;2023-08-21T07:24:43;26.60;99.90
11091;DHT22;5599;52.210;21.046;2023-08-21T07:27:12;26.50;99.90
11091;DHT22;5599;52.210;21.046;2023-08-21T07:29:42;26.30;1.00
11091;DHT22;5599;52.210;21.046;2023-08-21T07:32:11;26.20;1.00
11091;DHT22;5599;52.210;21.046;2023-08-21T07:34:42;26.00;1.00
11091;DHT22;5599;52.210;21.046;2023-08-21T07:37:11;25.70;1.00
11091;DHT22;5599;52.210;21.046;2023-08-21T07:39:40;25.50;14.10
11091;DHT22;5599;52.210;21.046;2023-08-21T07:42:11;25.40;99.90
11091;DHT22;5599;52.210;21.046;2023-08-21T07:44:40;25.30;1.00
11091;DHT22;5599;52.210;21.046;2023-08-21T07:47:09;25.10;99.90
11091;DHT22;5599;52.210;21.046;2023-08-21T07:49:39;25.00;99.90
11091;DHT22;5599;52.210;21.046;2023-08-21T07:52:09;25.00;91.00
11091;DHT22;5599;52.210;21.046;2023-08-21T07:54:39;25.00;99.90
11091;DHT22;5599;52.210;21.046;2023-08-21T07:57:08;25.20;1.00
11091;DHT22;5599;52.210;21.046;2023-08-21T07:59:37;25.20;1.00
11091;DHT22;5599;52.210;21.046;2023-08-21T08:02:06;25.30;99.90
11091;DHT22;5599;52.210;21.046;2023-08-21T08:04:36;25.40;97.40
11091;DHT22;5599;52.210;21.046;2023-08-21T08:07:05;25.50;1.00
11091;DHT22;5599;52.210;21.046;2023-08-21T08:09:35;25.80;1.00
11091;DHT22;5599;52.210;21.046;2023-08-21T08:12:05;26.20;99.90
11091;DHT22;5599;52.210;21.046;2023-08-21T08:14:36;26.60;99.90
11091;DHT22;5599;52.210;21.046;2023-08-21T08:17:05;26.90;1.00
11091;DHT22;5599;52.210;21.046;2023-08-21T08:19:34;27.40;17.10
11091;DHT22;5599;52.210;21.046;2023-08-21T08:22:03;27.80;1.00
11091;DHT22;5599;52.210;21.046;2023-08-21T08:24:32;28.20;99.90
11091;DHT22;5599;52.210;21.046;2023-08-21T08:27:03;28.30;99.90
11091;DHT22;5599;52.210;21.046;2023-08-21T08:29:32;28.40;99.90
11091;DHT22;5599;52.210;21.046;2023-08-21T08:32:01;28.40;78.60
11091;DHT22;5599;52.210;21.046;2023-08-21T08:34:31;28.60;49.10
11091;DHT22;5599;52.210;21.046;2023-08-21T08:37:00;28.80;1.00
11091;DHT22;5599;52.210;21.046;2023-08-21T08:39:29;29.30;1.00
11091;DHT22;5599;52.210;21.046;2023-08-21T08:42:02;29.60;1.00
11091;DHT22;5599;52.210;21.046;2023-08-21T08:44:35;29.90;99.90
11091;DHT22;5599;52.210;21.046;2023-08-21T08:47:04;30.10;99.90
11091;DHT22;5599;52.210;21.046;2023-08-21T08:49:34;30.30;99.90
11091;DHT22;5599;52.210;21.046;2023-08-21T08:52:04;30.60;99.90
11091;DHT22;5599;52.210;21.046;2023-08-21T08:54:33;31.00;99.90
11091;DHT22;5599;52.210;21.046;2023-08-21T08:57:03;31.40;99.90
11091;DHT22;5599;52.210;21.046;2023-08-21T08:59:34;31.80;99.90
11091;DHT22;5599;52.210;21.046;2023-08-21T09:02:03;32.40;99.90
11091;DHT22;5599;52.210;21.046;2023-08-21T09:04:32;32.90;99.90
11091;DHT22;5599;52.210;21.046;2023-08-21T09:07:08;33.40;44.70
11091;DHT22;5599;52.210;21.046;2023-08-21T09:09:41;33.80;1.00
11091;DHT22;5599;52.210;21.046;2023-08-21T09:12:14;34.10;1.00
11091;DHT22;5599;52.210;21.046;2023-08-21T09:14:45;34.10;1.00
11091;DHT22;5599;52.210;21.046;2023-08-21T09:17:15;34.30;1.00
11091;DHT22;5599;52.210;21.046;2023-08-21T09:19:44;34.70;1.00
11091;DHT22;5599;52.210;21.046;2023-08-21T09:22:15;35.00;1.00
11091;DHT22;5599;52.210;21.046;2023-08-21T09:25:00;35.30;1.00
11091;DHT22;5599;52.210;21.046;2023-08-21T09:27:35;35.60;1.00
11091;DHT22;5599;52.210;21.046;2023-08-21T09:30:09;35.70;1.00
11091;DHT22;5599;52.210;21.046;2023-08-21T09:32:55;35.70;1.00
11091;DHT22;5599;52.210;21.046;2023-08-21T09:35:24;35.60;1.00
11091;DHT22;5599;52.210;21.046;2023-08-21T09:37:53;35.60;1.00
11091;DHT22;5599;52.210;21.046;2023-08-21T09:40:23;35.40;1.00
11091;DHT22;5599;52.210;21.046;2023-08-21T09:42:52;35.30;1.00
11091;DHT22;5599;52.210;21.046;2023-08-21T09:45:24;35.00;1.00
11091;DHT22;5599;52.210;21.046;2023-08-21T09:47:54;35.30;1.00
11091;DHT22;5599;52.210;21.046;2023-08-21T09:50:23;35.40;1.00
11091;DHT22;5599;52.210;21.046;2023-08-21T09:52:53;35.70;1.00
11091;DHT22;5599;52.210;21.046;2023-08-21T09:55:42;35.70;1.00
11091;DHT22;5599;52.210;21.046;2023-08-21T09:58:13;35.70;1.00
11091;DHT22;5599;52.210;21.046;2023-08-21T10:00:44;35.60;1.00
11091;DHT22;5599;52.210;21.046;2023-08-21T10:03:13;35.50;1.00
11091;DHT22;5599;52.210;21.046;2023-08-21T10:05:48;35.30;1.00
11091;DHT22;5599;52.210;21.046;2023-08-21T10:08:23;35.10;1.00
11091;DHT22;5599;52.210;21.046;2023-08-21T10:10:53;35.00;1.00
11091;DHT22;5599;52.210;21.046;2023-08-21T10:13:23;35.10;1.00
11091;DHT22;5599;52.210;21.046;2023-08-21T10:15:53;35.00;1.00
11091;DHT22;5599;52.210;21.046;2023-08-21T10:18:24;35.00;1.00
11091;DHT22;5599;52.210;21.046;2023-08-21T10:20:54;35.00;1.00
11091;DHT22;5599;52.210;21.046;2023-08-21T10:23:25;35.00;1.00
11091;DHT22;5599;52.210;21.046;2023-08-21T10:25:55;35.20;1.00
11091;DHT22;5599;52.210;21.046;2023-08-21T10:28:42;35.10;1.00
11091;DHT22;5599;52.210;21.046;2023-08-21T10:31:31;35.20;1.00
11091;DHT22;5599;52.210;21.046;2023-08-21T10:34:02;35.00;1.00
11091;DHT22;5599;52.210;21.046;2023-08-21T10:37:06;34.80;1.00
11091;DHT22;5599;52.210;21.046;2023-08-21T10:39:38;34.80;1.00
11091;DHT22;5599;52.210;21.046;2023-08-21T10:42:09;34.60;1.00
11091;DHT22;5599;52.210;21.046;2023-08-21T10:44:50;34.50;1.00
11091;DHT22;5599;52.210;21.046;2023-08-21T10:47:23;34.30;1.00
11091;DHT22;5599;52.210;21.046;2023-08-21T10:49:53;34.30;1.00
11091;DHT22;5599;52.210;21.046;2023-08-21T10:52:23;34.40;1.00
11091;DHT22;5599;52.210;21.046;2023-08-21T10:54:55;34.50;1.00
11091;DHT22;5599;52.210;21.046;2023-08-21T10:57:26;34.50;1.00
11091;DHT22;5599;52.210;21.046;2023-08-21T10:59:57;34.40;1.00
11091;DHT22;5599;52.210;21.046;2023-08-21T11:02:29;34.10;1.00
11091;DHT22;5599;52.210;21.046;2023-08-21T11:04:59;33.90;1.00
11091;DHT22;5599;52.210;21.046;2023-08-21T11:07:36;33.80;1.00
11091;DHT22;5599;52.210;21.046;2023-08-21T11:10:07;33.70;1.00
11091;DHT22;5599;52.210;21.046;2023-08-21T11:12:47;33.60;1.00
11091;DHT22;5599;52.210;21.046;2023-08-21T11:15:18;33.40;1.00
11091;DHT22;5599;52.210;21.046;2023-08-21T11:17:56;33.10;1.00
11091;DHT22;5599;52.210;21.046;2023-08-21T11:20:30;32.80;1.00
11091;DHT22;5599;52.210;21.046;2023-08-21T11:23:00;32.50;1.00
11091;DHT22;5599;52.210;21.046;2023-08-21T11:25:30;32.70;1.00
11091;DHT22;5599;52.210;21.046;2023-08-21T11:28:00;32.90;1.00
11091;DHT22;5599;52.210;21.046;2023-08-21T11:30:31;32.60;1.00
11091;DHT22;5599;52.210;21.046;2023-08-21T11:33:09;32.60;1.00
11091;DHT22;5599;52.210;21.046;2023-08-21T11:35:39;32.90;1.00
11091;DHT22;5599;52.210;21.046;2023-08-21T11:38:16;32.90;1.00
11091;DHT22;5599;52.210;21.046;2023-08-21T11:40:52;32.90;1.00
11091;DHT22;5599;52.210;21.046;2023-08-21T11:43:21;33.00;1.00
11091;DHT22;5599;52.210;21.046;2023-08-21T11:45:51;32.80;1.00
11091;DHT22;5599;52.210;21.046;2023-08-21T11:48:27;33.00;1.00
11091;DHT22;5599;52.210;21.046;2023-08-21T11:50:56;33.00;1.00
11091;DHT22;5599;52.210;21.046;2023-08-21T11:53:32;32.90;1.00
11091;DHT22;5599;52.210;21.046;2023-08-21T11:56:01;32.90;4.60
11091;DHT22;5599;52.210;21.046;2023-08-21T11:58:31;33.10;99.90
11091;DHT22;5599;52.210;21.046;2023-08-21T12:01:04;33.00;99.90
11091;DHT22;5599;52.210;21.046;2023-08-21T12:03:39;33.10;1.00
11091;DHT22;5599;52.210;21.046;2023-08-21T12:06:10;33.10;90.50
11091;DHT22;5599;52.210;21.046;2023-08-21T12:08:39;33.00;99.90
11091;DHT22;5599;52.210;21.046;2023-08-21T12:11:09;33.20;1.00
11091;DHT22;5599;52.210;21.046;2023-08-21T12:13:39;33.20;39.50
11091;DHT22;5599;52.210;21.046;2023-08-21T12:16:08;33.00;1.00
11091;DHT22;5599;52.210;21.046;2023-08-21T12:18:39;32.50;1.00
11091;DHT22;5599;52.210;21.046;2023-08-21T12:21:08;32.20;1.00
11091;DHT22;5599;52.210;21.046;2023-08-21T12:23:37;31.90;1.00
11091;DHT22;5599;52.210;21.046;2023-08-21T12:26:06;31.90;1.00
11091;DHT22;5599;52.210;21.046;2023-08-21T12:28:36;31.90;1.60
11091;DHT22;5599;52.210;21.046;2023-08-21T12:31:05;31.80;1.00
11091;DHT22;5599;52.210;21.046;2023-08-21T12:33:34;31.90;1.00
11091;DHT22;5599;52.210;21.046;2023-08-21T12:36:05;31.90;11.50
11091;DHT22;5599;52.210;21.046;2023-08-21T12:38:36;31.80;1.00
11091;DHT22;5599;52.210;21.046;2023-08-21T12:41:05;32.00;1.00
11091;DHT22;5599;52.210;21.046;2023-08-21T12:43:35;31.90;1.00
11091;DHT22;5599;52.210;21.046;2023-08-21T12:46:04;31.90;1.00
11091;DHT22;5599;52.210;21.046;2023-08-21T12:48:35;32.20;1.00
11091;DHT22;5599;52.210;21.046;2023-08-21T12:51:08;32.30;1.00
11091;DHT22;5599;52.210;21.046;2023-08-21T12:53:37;32.30;1.00
11091;DHT22;5599;52.210;21.046;2023-08-21T12:56:06;32.30;1.00
11091;DHT22;5599;52.210;21.046;2023-08-21T12:58:35;32.20;1.00
11091;DHT22;5599;52.210;21.046;2023-08-21T13:01:05;32.20;1.00
11091;DHT22;5599;52.210;21.046;2023-08-21T13:03:35;32.20;1.00
11091;DHT22;5599;52.210;21.046;2023-08-21T13:06:05;32.30;1.00
11091;DHT22;5599;52.210;21.046;2023-08-21T13:08:35;32.40;1.00
11091;DHT22;5599;52.210;21.046;2023-08-21T13:11:04;32.30;1.00
11091;DHT22;5599;52.210;21.046;2023-08-21T13:13:34;32.20;1.00
11091;DHT22;5599;52.210;21.046;2023-08-21T13:16:03;32.20;1.00
11091;DHT22;5599;52.210;21.046;2023-08-21T13:18:34;32.00;1.00
11091;DHT22;5599;52.210;21.046;2023-08-21T13:21:03;32.00;1.00
11091;DHT22;5599;52.210;21.046;2023-08-21T13:23:32;32.00;1.00
11091;DHT22;5599;52.210;21.046;2023-08-21T13:26:03;32.10;1.00
11091;DHT22;5599;52.210;21.046;2023-08-21T13:28:32;32.10;1.00
11091;DHT22;5599;52.210;21.046;2023-08-21T13:31:02;32.00;95.60
11091;DHT22;5599;52.210;21.046;2023-08-21T13:33:44;31.70;1.00
11091;DHT22;5599;52.210;21.046;2023-08-21T13:36:17;31.60;1.00
11091;DHT22;5599;52.210;21.046;2023-08-21T13:38:51;31.60;1.00
11091;DHT22;5599;52.210;21.046;2023-08-21T13:41:21;31.80;1.00
11091;DHT22;5599;52.210;21.046;2023-08-21T13:43:50;31.80;1.00
11091;DHT22;5599;52.210;21.046;2023-08-21T13:46:22;31.80;1.00
11091;DHT22;5599;52.210;21.046;2023-08-21T13:48:51;31.50;1.00
11091;DHT22;5599;52.210;21.046;2023-08-21T13:51:20;31.50;1.00
11091;DHT22;5599;52.210;21.046;2023-08-21T13:53:49;31.50;1.00
11091;DHT22;5599;52.210;21.046;2023-08-21T13:56:18;31.50;1.00
11091;DHT22;5599;52.210;21.046;2023-08-21T13:58:49;31.40;1.00
11091;DHT22;5599;52.210;21.046;2023-08-21T14:01:18;31.10;1.00
11091;DHT22;5599;52.210;21.046;2023-08-21T14:03:47;31.10;1.00
11091;DHT22;5599;52.210;21.046;2023-08-21T14:06:16;31.20;1.00
11091;DHT22;5599;52.210;21.046;2023-08-21T14:08:46;31.10;1.00
11091;DHT22;5599;52.210;21.046;2023-08-21T14:11:15;31.00;1.00
11091;DHT22;5599;52.210;21.046;2023-08-21T14:13:44;31.10;1.00
11091;DHT22;5599;52.210;21.046;2023-08-21T14:16:14;31.10;1.00
11091;DHT22;5599;52.210;21.046;2023-08-21T14:18:43;31.20;1.00
11091;DHT22;5599;52.210;21.046;2023-08-21T14:21:12;31.30;1.00
11091;DHT22;5599;52.210;21.046;2023-08-21T14:23:41;31.40;22.40
11091;DHT22;5599;52.210;21.046;2023-08-21T14:26:11;31.30;1.00
11091;DHT22;5599;52.210;21.046;2023-08-21T14:28:40;31.10;1.00
11091;DHT22;5599;52.210;21.046;2023-08-21T14:31:09;31.20;1.00
11091;DHT22;5599;52.210;21.046;2023-08-21T14:33:40;31.10;1.00
11091;DHT22;5599;52.210;21.046;2023-08-21T14:36:09;31.10;1.00
11091;DHT22;5599;52.210;21.046;2023-08-21T14:38:38;31.00;99.90
11091;DHT22;5599;52.210;21.046;2023-08-21T14:41:07;31.10;1.00
11091;DHT22;5599;52.210;21.046;2023-08-21T14:43:36;31.00;99.90
11091;DHT22;5599;52.210;21.046;2023-08-21T14:46:05;31.00;1.00
11091;DHT22;5599;52.210;21.046;2023-08-21T14:48:35;30.90;1.00
11091;DHT22;5599;52.210;21.046;2023-08-21T14:51:07;30.80;99.90
11091;DHT22;5599;52.210;21.046;2023-08-21T14:53:36;30.80;1.00
11091;DHT22;5599;52.210;21.046;2023-08-21T14:56:05;30.80;1.00
11091;DHT22;5599;52.210;21.046;2023-08-21T14:58:34;30.70;1.00
11091;DHT22;5599;52.210;21.046;2023-08-21T15:01:03;30.80;1.00
11091;DHT22;5599;52.210;21.046;2023-08-21T15:03:34;30.90;1.00
11091;DHT22;5599;52.210;21.046;2023-08-21T15:06:04;30.80;1.00
11091;DHT22;5599;52.210;21.046;2023-08-21T15:08:37;30.60;1.00
11091;DHT22;5599;52.210;21.046;2023-08-21T15:11:06;30.30;1.00
11091;DHT22;5599;52.210;21.046;2023-08-21T15:13:37;30.10;1.00
11091;DHT22;5599;52.210;21.046;2023-08-21T15:16:06;30.10;1.00
11091;DHT22;5599;52.210;21.046;2023-08-21T15:18:36;30.10;1.00
11091;DHT22;5599;52.210;21.046;2023-08-21T15:21:05;29.90;1.00
11091;DHT22;5599;52.210;21.046;2023-08-21T15:23:35;29.90;1.00
11091;DHT22;5599;52.210;21.046;2023-08-21T15:26:04;29.80;1.00
11091;DHT22;5599;52.210;21.046;2023-08-21T15:28:34;29.90;1.00
11091;DHT22;5599;52.210;21.046;2023-08-21T15:31:03;29.80;1.00
11091;DHT22;5599;52.210;21.046;2023-08-21T15:33:34;29.80;1.00
11091;DHT22;5599;52.210;21.046;2023-08-21T15:36:03;29.90;1.00
11091;DHT22;5599;52.210;21.046;2023-08-21T15:38:35;29.90;1.00
11091;DHT22;5599;52.210;21.046;2023-08-21T15:41:05;29.70;99.90
11091;DHT22;5599;52.210;21.046;2023-08-21T15:43:35;29.60;1.00
11091;DHT22;5599;52.210;21.046;2023-08-21T15:46:05;29.70;1.00
11091;DHT22;5599;52.210;21.046;2023-08-21T15:48:35;29.70;99.90
11091;DHT22;5599;52.210;21.046;2023-08-21T15:51:05;29.60;99.90
11091;DHT22;5599;52.210;21.046;2023-08-21T15:53:36;29.30;99.90
11091;DHT22;5599;52.210;21.046;2023-08-21T15:56:05;29.40;99.90
11091;DHT22;5599;52.210;21.046;2023-08-21T15:58:35;29.30;99.90
11091;DHT22;5599;52.210;21.046;2023-08-21T16:01:04;29.30;99.90